Time;durP1;ratioP1;P1;durP2;ratioP2;P2;SDS_P1;SDS_P2;PMS_P1;PMS_P2;Temp;Humidity;BMP_temperature;BMP_pressure;BME280_temperature;BME280_humidity;BME280_pressure;Samples;Min_cycle;Max_cycle;Signal;HPM_P1;HPM_P2
2023/11/05 00:01:37;;;;;;;;;;;11.90;69.30;;;;;;4990037;28;92804;-41
2023/11/05 00:04:04;;;;;;;;;;;11.80;69.30;;;;;;4987298;28;92426;-41
2023/11/05 00:06:31;;;;;;;;;;;11.80;69.30;;;;;;4989143;28;94011;-42
2023/11/05 00:08:58;;;;;;;;;;;11.80;69.20;;;;;;4988199;28;93017;-42
2023/11/05 00:11:23;;;;;;;;;;;11.90;69.40;;;;;;4988086;28;91992;-41
2023/11/05 00:13:49;;;;;;;;;;;11.80;69.40;;;;;;4991556;28;92914;-41
2023/11/05 00:16:14;;;;;;;;;;;11.80;69.30;;;;;;4987125;28;92280;-42
2023/11/05 00:18:40;;;;;;;;;;;11.70;69.50;;;;;;4988881;28;92522;-42
2023/11/05 00:21:06;;;;;;;;;;;11.80;69.40;;;;;;4986408;28;93256;-41
2023/11/05 00:23:31;;;;;;;;;;;11.80;69.30;;;;;;4989861;28;92149;-41
2023/11/05 00:25:57;;;;;;;;;;;11.80;69.40;;;;;;4988864;28;92338;-41
2023/11/05 00:28:22;;;;;;;;;;;11.70;69.20;;;;;;4988368;28;93235;-42
2023/11/05 00:30:48;;;;;;;;;;;11.70;69.30;;;;;;4988262;28;91491;-41
2023/11/05 00:33:13;;;;;;;;;;;11.80;69.20;;;;;;4989815;28;93042;-42
2023/11/05 00:35:39;;;;;;;;;;;11.70;69.40;;;;;;4989128;28;93100;-41
2023/11/05 00:38:05;;;;;;;;;;;11.70;69.20;;;;;;4989301;28;93221;-42
2023/11/05 00:40:30;;;;;;;;;;;11.70;69.30;;;;;;4986994;28;93157;-42
2023/11/05 00:42:57;;;;;;;;;;;11.70;69.50;;;;;;4988914;28;92171;-42
2023/11/05 00:45:22;;;;;;;;;;;11.70;69.40;;;;;;4988800;28;92230;-42
2023/11/05 00:47:48;;;;;;;;;;;11.70;69.30;;;;;;4990469;28;93015;-41
2023/11/05 00:50:13;;;;;;;;;;;11.60;69.40;;;;;;4992877;28;92178;-42
2023/11/05 00:52:39;;;;;;;;;;;11.70;69.50;;;;;;4991330;28;92455;-42
2023/11/05 00:55:04;;;;;;;;;;;11.70;69.40;;;;;;4990104;28;92258;-42
2023/11/05 00:57:30;;;;;;;;;;;11.70;69.50;;;;;;4995771;28;92035;-41
2023/11/05 00:59:56;;;;;;;;;;;11.60;69.40;;;;;;4990516;28;93645;-42
2023/11/05 01:02:21;;;;;;;;;;;11.60;69.40;;;;;;4990817;28;93102;-41
2023/11/05 01:04:47;;;;;;;;;;;11.60;69.30;;;;;;4991955;28;92502;-41
2023/11/05 01:07:12;;;;;;;;;;;11.60;69.40;;;;;;4991301;28;93693;-41
2023/11/05 01:09:38;;;;;;;;;;;11.60;69.50;;;;;;4993118;28;92182;-41
2023/11/05 01:12:03;;;;;;;;;;;11.60;69.40;;;;;;4989758;28;92500;-42
2023/11/05 01:14:29;;;;;;;;;;;11.60;69.50;;;;;;4992201;28;92093;-42
2023/11/05 01:16:55;;;;;;;;;;;11.60;69.40;;;;;;4993762;28;92049;-42
2023/11/05 01:19:21;;;;;;;;;;;11.60;69.50;;;;;;4991351;28;92885;-42
2023/11/05 01:21:46;;;;;;;;;;;11.60;69.30;;;;;;4998927;28;92106;-41
2023/11/05 01:24:12;;;;;;;;;;;11.60;69.40;;;;;;4990960;28;92347;-42
2023/11/05 01:26:38;;;;;;;;;;;11.50;69.40;;;;;;4988756;28;94233;-41
2023/11/05 01:29:03;;;;;;;;;;;11.50;69.60;;;;;;4992809;28;92177;-42
2023/11/05 01:31:29;;;;;;;;;;;11.50;69.60;;;;;;4989768;28;92620;-42
2023/11/05 01:33:54;;;;;;;;;;;11.50;69.40;;;;;;4991481;28;93319;-42
2023/11/05 01:36:20;;;;;;;;;;;11.50;69.40;;;;;;4990515;28;92145;-41
2023/11/05 01:38:45;;;;;;;;;;;11.40;69.40;;;;;;4994933;28;93266;-42
2023/11/05 01:41:11;;;;;;;;;;;11.50;69.50;;;;;;4990387;28;92209;-42
2023/11/05 01:43:37;;;;;;;;;;;11.50;69.60;;;;;;4992750;28;92315;-41
2023/11/05 01:46:02;;;;;;;;;;;11.50;69.80;;;;;;4988305;28;93591;-41
2023/11/05 01:48:28;;;;;;;;;;;11.50;69.50;;;;;;4988852;28;92360;-41
2023/11/05 01:50:54;;;;;;;;;;;11.50;69.60;;;;;;4990573;28;93439;-41
2023/11/05 01:53:19;;;;;;;;;;;11.50;69.60;;;;;;4991242;28;93445;-42
2023/11/05 01:55:45;;;;;;;;;;;11.50;69.50;;;;;;4990199;28;92250;-42
2023/11/05 01:58:11;;;;;;;;;;;11.40;69.60;;;;;;4990211;28;92443;-41
2023/11/05 02:00:37;;;;;;;;;;;11.40;69.40;;;;;;4994395;28;93111;-42
2023/11/05 02:03:03;;;;;;;;;;;11.40;69.60;;;;;;4988866;28;92485;-42
2023/11/05 02:05:29;;;;;;;;;;;11.40;69.50;;;;;;4987793;28;94719;-42
2023/11/05 02:07:54;;;;;;;;;;;11.40;69.60;;;;;;4992943;28;91325;-42
2023/11/05 02:10:20;;;;;;;;;;;11.40;69.60;;;;;;4990495;28;92618;-42
2023/11/05 02:12:58;;;;;;;;;;;11.40;69.50;;;;;;4990014;28;93174;-42
2023/11/05 02:15:24;;;;;;;;;;;11.30;69.70;;;;;;4988041;28;93104;-41
2023/11/05 02:17:50;;;;;;;;;;;11.30;70.20;;;;;;4991387;28;93437;-41
2023/11/05 02:20:16;;;;;;;;;;;11.30;69.60;;;;;;4989329;28;93012;-41
2023/11/05 02:22:43;;;;;;;;;;;11.40;69.90;;;;;;4993375;28;92172;-42
2023/11/05 02:25:08;;;;;;;;;;;11.40;69.60;;;;;;4989641;28;92989;-41
2023/11/05 02:27:34;;;;;;;;;;;11.40;69.60;;;;;;4988912;28;92601;-42
2023/11/05 02:30:00;;;;;;;;;;;11.40;69.50;;;;;;4991943;28;92761;-41
2023/11/05 02:32:25;;;;;;;;;;;11.40;69.50;;;;;;4988736;28;92462;-42
2023/11/05 02:34:51;;;;;;;;;;;11.30;69.50;;;;;;4990762;28;92247;-42
2023/11/05 02:37:17;;;;;;;;;;;11.30;69.80;;;;;;4989508;28;93950;-42
2023/11/05 02:39:42;;;;;;;;;;;11.30;69.60;;;;;;4990527;28;94208;-41
2023/11/05 02:42:08;;;;;;;;;;;11.30;69.70;;;;;;4992224;28;92154;-42
2023/11/05 02:44:33;;;;;;;;;;;11.30;69.50;;;;;;4991353;28;92430;-41
2023/11/05 02:46:59;;;;;;;;;;;11.30;69.50;;;;;;4991623;28;92273;-41
2023/11/05 02:49:24;;;;;;;;;;;11.30;69.80;;;;;;4987704;28;93724;-41
2023/11/05 02:51:52;;;;;;;;;;;11.20;69.60;;;;;;4990206;28;93301;-42
2023/11/05 02:54:18;;;;;;;;;;;11.20;69.60;;;;;;4990500;28;92201;-41
2023/11/05 02:56:43;;;;;;;;;;;11.20;69.60;;;;;;4990573;28;92444;-41
2023/11/05 02:59:09;;;;;;;;;;;11.20;69.70;;;;;;4988559;28;93162;-41
2023/11/05 03:01:35;;;;;;;;;;;11.20;69.70;;;;;;4990902;28;92177;-41
2023/11/05 03:04:01;;;;;;;;;;;11.10;69.80;;;;;;4989501;28;93671;-42
2023/11/05 03:06:27;;;;;;;;;;;11.20;69.80;;;;;;4991129;28;92085;-42
2023/11/05 03:08:52;;;;;;;;;;;11.10;69.70;;;;;;4987850;28;92134;-42
2023/11/05 03:11:18;;;;;;;;;;;11.20;69.70;;;;;;4988736;28;95706;-42
2023/11/05 03:13:43;;;;;;;;;;;11.20;69.90;;;;;;4989661;28;92037;-42
2023/11/05 03:16:11;;;;;;;;;;;11.10;69.90;;;;;;4988030;28;92435;-41
2023/11/05 03:18:37;;;;;;;;;;;11.10;69.70;;;;;;4990056;28;93066;-42
2023/11/05 03:21:04;;;;;;;;;;;11.10;69.60;;;;;;4988123;28;91379;-41
2023/11/05 03:23:29;;;;;;;;;;;11.10;69.60;;;;;;4990871;28;92162;-41
2023/11/05 03:25:55;;;;;;;;;;;11.10;69.80;;;;;;4991304;28;93243;-42
2023/11/05 03:28:20;;;;;;;;;;;11.10;69.70;;;;;;4989114;28;93916;-43
2023/11/05 03:30:46;;;;;;;;;;;11.10;69.70;;;;;;4989270;28;93057;-42
2023/11/05 03:33:12;;;;;;;;;;;11.10;69.70;;;;;;4987927;28;92857;-42
2023/11/05 03:35:38;;;;;;;;;;;11.10;69.80;;;;;;4990667;28;93763;-41
2023/11/05 03:38:03;;;;;;;;;;;11.10;69.70;;;;;;4987221;28;93054;-42
2023/11/05 03:40:29;;;;;;;;;;;11.10;69.70;;;;;;4990581;28;92138;-42
2023/11/05 03:42:55;;;;;;;;;;;11.10;69.70;;;;;;4988386;28;93958;-41
2023/11/05 03:45:20;;;;;;;;;;;11.10;69.60;;;;;;4989387;28;92460;-41
2023/11/05 03:47:46;;;;;;;;;;;11.00;69.70;;;;;;4992825;28;92445;-41
2023/11/05 03:50:11;;;;;;;;;;;11.00;69.70;;;;;;4987386;28;93723;-42
2023/11/05 03:52:38;;;;;;;;;;;11.00;69.60;;;;;;4989116;28;93532;-42
2023/11/05 03:55:03;;;;;;;;;;;11.00;69.70;;;;;;4986962;28;94776;-42
2023/11/05 03:57:29;;;;;;;;;;;11.00;69.80;;;;;;4989929;28;93128;-42
2023/11/05 03:59:54;;;;;;;;;;;11.00;69.80;;;;;;4988070;28;92398;-42
2023/11/05 04:02:20;;;;;;;;;;;11.00;69.80;;;;;;4989328;28;92433;-43
2023/11/05 04:04:47;;;;;;;;;;;10.90;69.80;;;;;;4988425;28;93241;-42
2023/11/05 04:07:12;;;;;;;;;;;11.00;69.80;;;;;;4987804;28;92178;-42
2023/11/05 04:09:38;;;;;;;;;;;11.00;69.80;;;;;;4993294;28;92764;-42
2023/11/05 04:12:03;;;;;;;;;;;11.00;69.80;;;;;;4987019;28;92267;-43
2023/11/05 04:14:29;;;;;;;;;;;10.90;69.70;;;;;;4990322;28;92385;-42
2023/11/05 04:16:55;;;;;;;;;;;11.00;69.80;;;;;;4986731;28;93939;-42
2023/11/05 04:19:20;;;;;;;;;;;10.90;69.70;;;;;;4988934;28;92137;-42
2023/11/05 04:21:46;;;;;;;;;;;10.90;69.70;;;;;;4989141;28;92197;-42
2023/11/05 04:24:11;;;;;;;;;;;10.90;69.90;;;;;;4992219;28;92994;-42
2023/11/05 04:26:37;;;;;;;;;;;10.90;69.80;;;;;;4985595;28;92199;-41
2023/11/05 04:29:03;;;;;;;;;;;10.90;69.80;;;;;;4993000;28;92199;-42
2023/11/05 04:31:28;;;;;;;;;;;10.90;69.90;;;;;;4993123;28;93200;-42
2023/11/05 04:33:54;;;;;;;;;;;10.90;69.70;;;;;;4993573;28;91754;-41
2023/11/05 04:36:19;;;;;;;;;;;10.90;69.70;;;;;;4991062;28;92955;-42
2023/11/05 04:38:45;;;;;;;;;;;10.90;69.80;;;;;;4992173;28;92075;-42
2023/11/05 04:41:10;;;;;;;;;;;10.90;69.80;;;;;;4991874;28;93080;-42
2023/11/05 04:43:36;;;;;;;;;;;10.80;69.70;;;;;;4990491;28;93136;-42
2023/11/05 04:46:01;;;;;;;;;;;10.80;70.10;;;;;;4993331;28;92329;-42
2023/11/05 04:48:27;;;;;;;;;;;10.80;69.80;;;;;;4990298;28;92431;-42
2023/11/05 04:50:52;;;;;;;;;;;10.80;69.80;;;;;;4991892;28;93206;-44
2023/11/05 04:53:18;;;;;;;;;;;10.80;69.80;;;;;;4994275;28;92041;-44
2023/11/05 04:55:44;;;;;;;;;;;10.80;69.90;;;;;;4991358;28;94201;-42
2023/11/05 04:58:09;;;;;;;;;;;10.80;70.00;;;;;;4992439;28;91814;-42
2023/11/05 05:00:35;;;;;;;;;;;10.80;70.00;;;;;;4991045;28;92039;-42
2023/11/05 05:03:01;;;;;;;;;;;10.80;70.00;;;;;;4992304;28;93053;-42
2023/11/05 05:05:27;;;;;;;;;;;10.80;70.00;;;;;;4988942;28;93168;-44
2023/11/05 05:07:52;;;;;;;;;;;10.80;69.70;;;;;;4993074;28;93500;-42
2023/11/05 05:10:18;;;;;;;;;;;10.80;70.00;;;;;;4990183;28;93158;-42
2023/11/05 05:12:43;;;;;;;;;;;10.80;69.70;;;;;;4995039;28;92193;-42
2023/11/05 05:15:09;;;;;;;;;;;10.70;69.90;;;;;;4990932;28;93394;-43
2023/11/05 05:17:35;;;;;;;;;;;10.80;69.90;;;;;;4990720;28;92245;-42
2023/11/05 05:22:45;;;;;;;;;;;10.70;69.80;;;;;;4991587;28;91557;-42
2023/11/05 05:25:10;;;;;;;;;;;10.70;69.90;;;;;;4990035;28;92168;-42
2023/11/05 05:27:36;;;;;;;;;;;10.70;69.90;;;;;;4992432;28;93833;-42
2023/11/05 05:30:03;;;;;;;;;;;10.70;70.00;;;;;;4987618;28;93981;-42
2023/11/05 05:32:29;;;;;;;;;;;10.70;69.80;;;;;;4991513;28;92203;-43
2023/11/05 05:34:54;;;;;;;;;;;10.70;70.10;;;;;;4993022;28;92360;-42
2023/11/05 05:37:20;;;;;;;;;;;10.70;70.00;;;;;;4990856;28;92044;-43
2023/11/05 05:39:47;;;;;;;;;;;10.70;69.90;;;;;;4991482;28;92264;-42
2023/11/05 05:42:13;;;;;;;;;;;10.60;69.90;;;;;;4989169;28;93036;-41
2023/11/05 05:44:38;;;;;;;;;;;10.70;69.90;;;;;;4992188;28;92026;-41
2023/11/05 05:47:04;;;;;;;;;;;10.60;70.00;;;;;;4989428;28;92294;-42
2023/11/05 05:49:29;;;;;;;;;;;10.60;69.90;;;;;;4991668;28;93027;-42
2023/11/05 05:51:55;;;;;;;;;;;10.60;70.20;;;;;;4990940;28;92938;-42
2023/11/05 05:54:21;;;;;;;;;;;10.60;70.00;;;;;;4986414;28;93759;-41
2023/11/05 05:56:46;;;;;;;;;;;10.70;69.80;;;;;;4990074;28;93097;-42
2023/11/05 05:59:12;;;;;;;;;;;10.70;70.00;;;;;;4985166;28;92347;-41
2023/11/05 06:01:37;;;;;;;;;;;10.70;69.90;;;;;;4991260;28;94087;-43
2023/11/05 06:04:03;;;;;;;;;;;10.70;69.90;;;;;;4988298;28;92790;-42
2023/11/05 06:06:29;;;;;;;;;;;10.60;69.70;;;;;;4990720;28;93962;-41
2023/11/05 06:08:54;;;;;;;;;;;10.60;69.90;;;;;;4990401;28;93525;-41
2023/11/05 06:11:20;;;;;;;;;;;10.60;70.10;;;;;;4988972;28;91704;-41
2023/11/05 06:13:45;;;;;;;;;;;10.70;69.80;;;;;;4988549;28;92221;-42
2023/11/05 06:16:11;;;;;;;;;;;10.70;69.80;;;;;;4987116;28;93142;-42
2023/11/05 06:18:37;;;;;;;;;;;10.70;69.70;;;;;;4988744;28;93643;-42
2023/11/05 06:21:03;;;;;;;;;;;10.70;69.70;;;;;;4985372;28;94335;-42
2023/11/05 06:23:29;;;;;;;;;;;10.70;69.80;;;;;;4987279;28;92556;-41
2023/11/05 06:25:54;;;;;;;;;;;10.70;69.80;;;;;;4992049;28;92158;-42
2023/11/05 06:28:20;;;;;;;;;;;10.60;69.70;;;;;;4986344;28;93176;-42
2023/11/05 06:30:46;;;;;;;;;;;10.70;69.60;;;;;;4982105;28;93760;-42
2023/11/05 06:33:12;;;;;;;;;;;10.70;69.70;;;;;;4990801;28;93013;-41
2023/11/05 06:35:38;;;;;;;;;;;10.60;69.90;;;;;;4988962;28;93862;-42
2023/11/05 06:38:03;;;;;;;;;;;10.60;69.70;;;;;;4982402;28;92356;-42
2023/11/05 06:40:29;;;;;;;;;;;10.60;69.60;;;;;;4991524;28;94022;-42
2023/11/05 06:42:54;;;;;;;;;;;10.70;69.80;;;;;;4987454;28;93129;-41
2023/11/05 06:45:20;;;;;;;;;;;10.70;69.60;;;;;;4988755;28;93585;-41
2023/11/05 06:47:45;;;;;;;;;;;10.70;69.70;;;;;;4989629;28;93146;-41
2023/11/05 06:50:11;;;;;;;;;;;10.60;69.70;;;;;;4992197;28;92642;-41
2023/11/05 06:52:37;;;;;;;;;;;10.60;69.60;;;;;;4985501;28;92720;-42
2023/11/05 06:55:03;;;;;;;;;;;10.60;69.60;;;;;;4991634;28;92702;-41
2023/11/05 06:57:29;;;;;;;;;;;10.70;69.60;;;;;;4992776;28;92919;-41
2023/11/05 06:59:54;;;;;;;;;;;10.70;69.70;;;;;;4987424;28;92950;-43
2023/11/05 07:02:20;;;;;;;;;;;10.60;69.80;;;;;;4985341;28;94688;-42
2023/11/05 07:04:46;;;;;;;;;;;10.70;69.50;;;;;;4989003;28;92978;-42
2023/11/05 07:07:11;;;;;;;;;;;10.60;69.60;;;;;;4985847;28;94241;-42
2023/11/05 07:09:37;;;;;;;;;;;10.70;69.60;;;;;;4986310;28;93075;-41
2023/11/05 07:12:03;;;;;;;;;;;10.70;69.70;;;;;;4986261;28;93832;-42
2023/11/05 07:14:29;;;;;;;;;;;10.60;69.50;;;;;;4985480;28;92890;-42
2023/11/05 07:16:54;;;;;;;;;;;10.70;69.70;;;;;;4982468;28;93339;-42
2023/11/05 07:19:20;;;;;;;;;;;10.70;69.70;;;;;;4987870;28;92359;-42
2023/11/05 07:21:45;;;;;;;;;;;10.70;69.70;;;;;;4988705;28;92798;-42
2023/11/05 07:24:11;;;;;;;;;;;10.70;69.70;;;;;;4986508;28;92839;-42
2023/11/05 07:26:37;;;;;;;;;;;10.70;69.80;;;;;;4985382;28;92492;-42
2023/11/05 07:29:03;;;;;;;;;;;10.70;69.70;;;;;;4984836;28;92234;-42
2023/11/05 07:31:29;;;;;;;;;;;10.70;69.50;;;;;;4988945;28;94733;-42
2023/11/05 07:33:54;;;;;;;;;;;10.70;69.70;;;;;;4986800;28;94369;-42
2023/11/05 07:36:20;;;;;;;;;;;10.70;69.80;;;;;;4991179;28;92380;-43
2023/11/05 07:38:45;;;;;;;;;;;10.70;69.70;;;;;;4989113;28;92506;-42
2023/11/05 07:41:11;;;;;;;;;;;10.80;69.60;;;;;;4989033;28;93271;-41
2023/11/05 07:43:39;;;;;;;;;;;10.80;69.70;;;;;;4990876;28;92359;-42
2023/11/05 07:46:06;;;;;;;;;;;10.80;69.40;;;;;;4992040;28;94151;-42
2023/11/05 07:48:31;;;;;;;;;;;10.80;69.40;;;;;;4985024;28;91648;-44
2023/11/05 07:50:57;;;;;;;;;;;10.80;69.60;;;;;;4986754;28;93467;-42
2023/11/05 07:53:22;;;;;;;;;;;10.80;69.80;;;;;;4982516;28;92979;-42
2023/11/05 07:55:48;;;;;;;;;;;10.80;69.70;;;;;;4987596;28;93554;-42
2023/11/05 07:58:14;;;;;;;;;;;10.80;69.60;;;;;;4991060;28;93510;-42
2023/11/05 08:00:41;;;;;;;;;;;10.80;69.80;;;;;;4988219;28;93653;-42
2023/11/05 08:03:07;;;;;;;;;;;10.80;69.80;;;;;;4985751;28;92257;-42
2023/11/05 08:05:34;;;;;;;;;;;10.80;69.40;;;;;;4986043;28;92191;-43
2023/11/05 08:07:59;;;;;;;;;;;10.80;69.60;;;;;;4986286;28;92189;-44
2023/11/05 08:10:25;;;;;;;;;;;10.80;70.20;;;;;;4988447;28;92324;-43
2023/11/05 08:12:50;;;;;;;;;;;10.80;69.70;;;;;;4989290;28;92648;-42
2023/11/05 08:15:16;;;;;;;;;;;10.80;70.00;;;;;;4984757;28;92341;-42
2023/11/05 08:17:42;;;;;;;;;;;10.80;70.10;;;;;;4986220;28;92433;-42
2023/11/05 08:20:11;;;;;;;;;;;10.80;70.10;;;;;;4987655;28;94043;-43
2023/11/05 08:22:38;;;;;;;;;;;10.80;69.90;;;;;;4984519;28;92729;-42
2023/11/05 08:25:04;;;;;;;;;;;10.70;69.80;;;;;;4983985;28;94242;-42
2023/11/05 08:27:29;;;;;;;;;;;10.80;69.90;;;;;;4991327;28;94605;-42
2023/11/05 08:29:55;;;;;;;;;;;10.80;69.70;;;;;;4988021;28;93622;-42
2023/11/05 08:32:21;;;;;;;;;;;10.80;69.80;;;;;;4987142;28;93249;-42
2023/11/05 08:34:47;;;;;;;;;;;10.70;69.90;;;;;;4984718;28;92180;-42
2023/11/05 08:37:13;;;;;;;;;;;10.70;70.00;;;;;;4988522;28;95172;-42
2023/11/05 08:39:38;;;;;;;;;;;10.70;70.10;;;;;;4987828;28;93263;-43
2023/11/05 08:42:04;;;;;;;;;;;10.80;70.00;;;;;;4990182;28;92140;-43
2023/11/05 08:44:30;;;;;;;;;;;10.80;70.40;;;;;;4985598;28;93028;-42
2023/11/05 08:46:55;;;;;;;;;;;10.70;70.30;;;;;;4986565;28;93021;-42
2023/11/05 08:49:22;;;;;;;;;;;10.80;70.30;;;;;;4992251;28;92771;-42
2023/11/05 08:51:48;;;;;;;;;;;10.70;70.00;;;;;;4983647;28;94494;-42
2023/11/05 08:54:13;;;;;;;;;;;10.70;70.10;;;;;;4985564;28;92961;-42
2023/11/05 08:56:39;;;;;;;;;;;10.80;70.40;;;;;;4987316;28;93963;-43
2023/11/05 08:59:04;;;;;;;;;;;10.70;70.10;;;;;;4987664;28;93064;-42
2023/11/05 09:01:30;;;;;;;;;;;10.70;71.10;;;;;;4983615;28;91404;-42
2023/11/05 09:03:56;;;;;;;;;;;10.70;70.30;;;;;;4985389;28;92092;-42
2023/11/05 09:06:21;;;;;;;;;;;10.70;70.20;;;;;;4990294;28;92376;-43
2023/11/05 09:08:47;;;;;;;;;;;10.80;70.40;;;;;;4985785;28;93462;-43
2023/11/05 09:11:13;;;;;;;;;;;10.70;70.20;;;;;;4990034;28;93395;-42
2023/11/05 09:13:38;;;;;;;;;;;10.70;70.40;;;;;;4989270;28;92634;-42
2023/11/05 09:16:07;;;;;;;;;;;10.80;70.40;;;;;;4992574;28;92462;-42
2023/11/05 09:18:33;;;;;;;;;;;10.80;70.40;;;;;;4988323;28;93008;-42
2023/11/05 09:20:59;;;;;;;;;;;10.80;70.70;;;;;;4989407;28;93916;-42
2023/11/05 09:23:24;;;;;;;;;;;10.70;70.60;;;;;;4992862;28;92368;-43
2023/11/05 09:25:50;;;;;;;;;;;10.70;70.40;;;;;;4990285;28;92490;-43
2023/11/05 09:28:16;;;;;;;;;;;10.70;70.70;;;;;;4987540;28;93156;-43
2023/11/05 09:30:42;;;;;;;;;;;10.70;70.90;;;;;;4990254;28;92924;-42
2023/11/05 09:33:08;;;;;;;;;;;10.70;70.70;;;;;;4986726;28;93158;-43
2023/11/05 09:35:33;;;;;;;;;;;10.70;70.80;;;;;;4988624;28;93298;-42
2023/11/05 09:37:59;;;;;;;;;;;10.70;70.90;;;;;;4984031;28;95284;-43
2023/11/05 09:40:25;;;;;;;;;;;10.80;70.90;;;;;;4987953;28;92630;-42
2023/11/05 09:43:05;;;;;;;;;;;10.70;71.00;;;;;;4989503;28;92379;-42
2023/11/05 09:45:33;;;;;;;;;;;10.80;71.00;;;;;;4985001;28;93096;-44
2023/11/05 09:48:03;;;;;;;;;;;10.70;71.00;;;;;;4990047;28;94101;-43
2023/11/05 09:50:28;;;;;;;;;;;10.80;71.10;;;;;;4989169;28;92251;-42
2023/11/05 09:53:08;;;;;;;;;;;10.70;70.90;;;;;;4991685;28;93399;-42
2023/11/05 09:55:34;;;;;;;;;;;10.80;71.00;;;;;;4989188;28;93259;-42
2023/11/05 09:58:01;;;;;;;;;;;10.80;71.20;;;;;;4987459;28;93604;-42
2023/11/05 10:00:30;;;;;;;;;;;10.80;71.10;;;;;;4990182;28;92309;-42
2023/11/05 10:02:56;;;;;;;;;;;10.80;71.10;;;;;;4988612;28;92198;-42
2023/11/05 10:05:26;;;;;;;;;;;10.80;71.40;;;;;;4988122;28;93383;-42
2023/11/05 10:07:52;;;;;;;;;;;10.90;71.00;;;;;;4986818;28;92304;-43
2023/11/05 10:10:18;;;;;;;;;;;10.80;70.90;;;;;;4989088;28;92984;-42
2023/11/05 10:12:44;;;;;;;;;;;10.90;71.20;;;;;;4985523;28;93094;-42
2023/11/05 10:15:10;;;;;;;;;;;10.90;71.00;;;;;;4991911;28;92451;-42
2023/11/05 10:17:35;;;;;;;;;;;10.90;71.30;;;;;;4989989;28;93814;-43
2023/11/05 10:20:01;;;;;;;;;;;10.90;71.30;;;;;;4989211;28;92275;-42
2023/11/05 10:22:27;;;;;;;;;;;10.90;71.10;;;;;;4988501;28;93249;-44
2023/11/05 10:24:52;;;;;;;;;;;10.90;71.30;;;;;;4986221;28;93005;-43
2023/11/05 10:27:29;;;;;;;;;;;10.90;71.10;;;;;;4987839;28;92323;-43
2023/11/05 10:29:55;;;;;;;;;;;11.00;71.20;;;;;;4990207;28;92502;-42
2023/11/05 10:32:24;;;;;;;;;;;11.00;71.20;;;;;;4984842;28;93881;-42
2023/11/05 10:34:52;;;;;;;;;;;11.00;71.20;;;;;;4986548;28;92269;-42
2023/11/05 10:37:18;;;;;;;;;;;11.00;71.20;;;;;;4993145;28;92374;-43
2023/11/05 10:39:44;;;;;;;;;;;11.00;71.30;;;;;;4990037;28;91566;-43
2023/11/05 10:42:12;;;;;;;;;;;11.00;71.30;;;;;;4991233;28;93556;-42
2023/11/05 10:44:40;;;;;;;;;;;11.00;71.30;;;;;;4983798;28;94639;-42
2023/11/05 10:47:05;;;;;;;;;;;11.00;71.20;;;;;;4985712;28;93104;-41
2023/11/05 10:49:32;;;;;;;;;;;11.10;70.40;;;;;;4990077;28;93065;-42
2023/11/05 10:51:58;;;;;;;;;;;11.00;71.10;;;;;;4989603;28;93065;-42
2023/11/05 10:54:24;;;;;;;;;;;10.90;71.30;;;;;;4987356;28;92195;-42
2023/11/05 10:56:51;;;;;;;;;;;10.90;71.30;;;;;;4990378;28;92521;-46
2023/11/05 10:59:49;;;;;;;;;;;11.10;70.80;;;;;;4988776;28;93386;-48
2023/11/05 11:02:15;;;;;;;;;;;11.20;69.90;;;;;;4968581;28;92527;-41
2023/11/05 11:04:40;;;;;;;;;;;11.30;68.30;;;;;;4987410;28;92376;-50
2023/11/05 11:07:06;;;;;;;;;;;11.40;68.20;;;;;;4990426;28;92170;-49
2023/11/05 11:09:33;;;;;;;;;;;11.50;68.50;;;;;;4987182;28;92405;-46
2023/11/05 11:12:18;;;;;;;;;;;11.50;68.20;;;;;;4984483;28;93142;-43
2023/11/05 11:14:44;;;;;;;;;;;11.60;68.00;;;;;;4989209;28;92065;-46
2023/11/05 11:17:14;;;;;;;;;;;11.50;68.70;;;;;;4987926;28;92507;-44
2023/11/05 11:19:40;;;;;;;;;;;11.60;68.20;;;;;;4985839;28;94949;-44
2023/11/05 11:22:06;;;;;;;;;;;11.70;68.10;;;;;;4989240;28;92113;-45
2023/11/05 11:24:39;;;;;;;;;;;11.70;68.30;;;;;;4987820;28;93094;-47
2023/11/05 11:27:06;;;;;;;;;;;11.90;67.80;;;;;;4984812;28;93895;-41
2023/11/05 11:29:33;;;;;;;;;;;11.90;68.20;;;;;;4981657;28;91866;-45
2023/11/05 11:31:59;;;;;;;;;;;11.90;68.50;;;;;;4986548;28;94384;-44
2023/11/05 11:34:25;;;;;;;;;;;12.00;67.90;;;;;;4990324;28;92503;-44
2023/11/05 11:36:57;;;;;;;;;;;12.00;68.00;;;;;;4985651;28;93204;-43
2023/11/05 11:39:23;;;;;;;;;;;12.10;68.00;;;;;;4984057;28;94325;-46
2023/11/05 11:41:48;;;;;;;;;;;12.10;68.10;;;;;;4993484;28;92300;-43
2023/11/05 11:44:14;;;;;;;;;;;12.10;67.50;;;;;;4987339;28;94673;-42
2023/11/05 11:46:40;;;;;;;;;;;12.10;68.10;;;;;;4984340;28;92641;-43
2023/11/05 11:49:09;;;;;;;;;;;12.10;67.70;;;;;;4983954;28;92373;-43
2023/11/05 11:51:35;;;;;;;;;;;12.10;67.60;;;;;;4987076;28;92809;-45
2023/11/05 11:54:00;;;;;;;;;;;12.10;67.70;;;;;;4985407;28;91856;-47
2023/11/05 11:56:26;;;;;;;;;;;12.20;68.20;;;;;;4977102;28;93362;-49
2023/11/05 11:58:52;;;;;;;;;;;12.20;68.10;;;;;;4983996;28;93155;-59
2023/11/05 12:01:18;;;;;;;;;;;12.20;68.70;;;;;;4986325;28;93317;-52
2023/11/05 12:03:44;;;;;;;;;;;12.20;68.50;;;;;;4988973;28;93860;-60
2023/11/05 12:06:10;;;;;;;;;;;12.30;67.80;;;;;;4985444;28;92459;-43
2023/11/05 12:08:36;;;;;;;;;;;12.30;68.00;;;;;;4985822;28;93861;-46
2023/11/05 12:11:21;;;;;;;;;;;12.50;67.80;;;;;;4986474;28;93345;-55
2023/11/05 12:13:47;;;;;;;;;;;12.60;67.40;;;;;;4983960;28;92118;-53
2023/11/05 12:16:14;;;;;;;;;;;12.80;67.30;;;;;;4984083;28;92378;-51
2023/11/05 12:18:40;;;;;;;;;;;12.80;66.60;;;;;;4987544;28;93727;-49
2023/11/05 12:21:09;;;;;;;;;;;12.70;66.40;;;;;;4987768;28;93921;-43
2023/11/05 12:23:38;;;;;;;;;;;12.70;66.60;;;;;;4983403;28;93012;-45
2023/11/05 12:26:05;;;;;;;;;;;12.70;66.30;;;;;;4990064;28;93992;-52
2023/11/05 12:28:31;;;;;;;;;;;12.70;66.40;;;;;;4984180;28;92455;-49
2023/11/05 12:31:00;;;;;;;;;;;12.70;66.70;;;;;;4984213;28;93145;-47
2023/11/05 12:33:26;;;;;;;;;;;12.60;67.00;;;;;;4986701;28;92138;-44
2023/11/05 12:35:52;;;;;;;;;;;12.60;66.80;;;;;;4987658;28;92733;-42
2023/11/05 12:38:18;;;;;;;;;;;12.60;66.90;;;;;;4988234;28;92866;-43
2023/11/05 12:40:44;;;;;;;;;;;12.60;67.10;;;;;;4995515;28;92086;-48
2023/11/05 12:43:09;;;;;;;;;;;12.70;67.00;;;;;;4994071;28;92658;-52
2023/11/05 12:45:35;;;;;;;;;;;12.70;67.50;;;;;;4988104;28;92959;-46
2023/11/05 12:48:00;;;;;;;;;;;12.70;67.10;;;;;;4989081;28;92636;-51
2023/11/05 12:50:27;;;;;;;;;;;12.70;67.10;;;;;;4990196;28;94664;-51
2023/11/05 12:52:52;;;;;;;;;;;12.80;66.30;;;;;;4989286;28;92241;-47
2023/11/05 12:55:18;;;;;;;;;;;12.80;66.00;;;;;;4987601;28;93124;-44
2023/11/05 12:57:47;;;;;;;;;;;12.90;65.70;;;;;;4991240;28;93203;-48
2023/11/05 13:00:13;;;;;;;;;;;12.80;66.40;;;;;;4986936;28;92159;-42
2023/11/05 13:05:14;;;;;;;;;;;12.80;67.30;;;;;;5664373;22;94423;-60
2023/11/05 13:07:39;;;;;;;;;;;12.80;67.20;;;;;;4991097;28;92569;-52
2023/11/05 13:10:06;;;;;;;;;;;12.90;66.20;;;;;;4988906;28;93658;-50
2023/11/05 13:12:34;;;;;;;;;;;13.00;65.40;;;;;;4996446;28;92963;-54
2023/11/05 13:15:03;;;;;;;;;;;12.90;65.70;;;;;;4991643;28;94211;-46
2023/11/05 13:17:28;;;;;;;;;;;13.00;65.50;;;;;;4988708;28;95411;-50
2023/11/05 13:19:54;;;;;;;;;;;13.10;64.80;;;;;;4990282;28;93340;-57
2023/11/05 13:22:21;;;;;;;;;;;13.10;65.00;;;;;;4989233;28;93143;-61
2023/11/05 13:24:47;;;;;;;;;;;13.00;64.90;;;;;;4985384;28;94412;-57
2023/11/05 13:27:13;;;;;;;;;;;13.10;65.40;;;;;;4990400;28;92377;-52
2023/11/05 13:29:38;;;;;;;;;;;13.20;65.30;;;;;;4989512;28;92848;-50
2023/11/05 13:32:05;;;;;;;;;;;13.10;65.10;;;;;;4990345;28;92029;-56
2023/11/05 13:34:31;;;;;;;;;;;13.20;65.00;;;;;;4992938;28;92611;-53
2023/11/05 13:36:56;;;;;;;;;;;13.20;65.30;;;;;;4987581;28;93095;-55
2023/11/05 13:39:24;;;;;;;;;;;13.20;65.60;;;;;;4989186;28;93392;-56
2023/11/05 13:41:49;;;;;;;;;;;13.30;65.70;;;;;;4987093;28;95531;-53
2023/11/05 13:44:15;;;;;;;;;;;13.30;66.00;;;;;;4987090;28;93053;-54
2023/11/05 13:46:40;;;;;;;;;;;13.30;65.40;;;;;;4993269;28;92592;-60
2023/11/05 13:49:06;;;;;;;;;;;13.30;65.40;;;;;;4989494;28;94530;-53
2023/11/05 13:51:32;;;;;;;;;;;13.30;65.50;;;;;;4990621;28;94535;-56
2023/11/05 13:53:58;;;;;;;;;;;13.40;65.30;;;;;;4985736;28;93052;-56
2023/11/05 13:56:23;;;;;;;;;;;13.40;65.60;;;;;;4984442;28;91493;-60
2023/11/05 13:58:49;;;;;;;;;;;13.40;65.90;;;;;;4988027;28;92232;-55
2023/11/05 14:01:17;;;;;;;;;;;13.50;66.10;;;;;;4985194;28;93288;-51
2023/11/05 14:03:46;;;;;;;;;;;13.50;66.60;;;;;;4988656;28;94027;-49
2023/11/05 14:06:12;;;;;;;;;;;13.50;65.80;;;;;;4986547;28;92294;-54
2023/11/05 14:08:38;;;;;;;;;;;13.50;66.10;;;;;;4986971;28;92631;-54
2023/11/05 14:11:04;;;;;;;;;;;13.50;66.00;;;;;;4987874;28;94345;-55
2023/11/05 14:13:30;;;;;;;;;;;13.50;66.30;;;;;;4985685;28;92359;-49
2023/11/05 14:15:56;;;;;;;;;;;13.50;66.10;;;;;;4988136;28;94959;-53